Terminal Aerodrome Forecast
Issued by NWS

Home | Current Version | Previous Version | Text Only | Print | Product List | Glossary On
Versions: 1 2 3 4 5 6 7 8 9 10 11 12 13 14
000
FTUS42 KTBW 171700
TAFLAL
TAF
KLAL 171727Z 1718/1818 24005KT P6SM -RA SCT015 BKN070 OVC100
     FM172000 26007KT P6SM VCSH SCT035 BKN100 OVC250
     FM180000 VRB03KT P6SM SCT020 BKN250
     FM180600 00000KT P6SM FEW020 SCT250
     FM181400 03003KT P6SM SCT030 SCT250=

USA.gov is the U.S. government's official web portal to all federal, state and local government web resources and services.